Time;durP1;ratioP1;P1;durP2;ratioP2;P2;SDS_P1;SDS_P2;PMS_P1;PMS_P2;Temp;Humidity;BMP_temperature;BMP_pressure;BME280_temperature;BME280_humidity;BME280_pressure;Samples;Min_cycle;Max_cycle;Signal;HPM_P1;HPM_P2
2021/10/19 00:00:16;;;;;;;21.58;18.13;;;12.60;99.90;;;;;;4099267;28;20042;-76
2021/10/19 00:02:17;;;;;;;18.85;15.52;;;12.60;99.90;;;;;;4084428;28;20123;-76
2021/10/19 00:04:18;;;;;;;20.08;17.38;;;12.60;99.90;;;;;;4099949;28;20499;-75
2021/10/19 00:06:19;;;;;;;18.08;16.10;;;12.60;99.90;;;;;;4099217;28;20055;-75
2021/10/19 00:08:20;;;;;;;18.15;14.80;;;12.60;99.90;;;;;;4082574;28;20510;-75
2021/10/19 00:10:21;;;;;;;20.20;16.55;;;12.60;99.90;;;;;;4100449;28;20047;-75
2021/10/19 00:12:22;;;;;;;20.08;15.65;;;12.50;99.90;;;;;;4097975;28;20041;-75
2021/10/19 00:14:23;;;;;;;19.85;16.08;;;12.50;99.90;;;;;;4099055;28;20101;-75
2021/10/19 00:16:24;;;;;;;20.05;17.90;;;12.50;99.90;;;;;;4115045;28;20469;-75
2021/10/19 00:18:25;;;;;;;18.83;16.38;;;12.50;99.90;;;;;;4098496;28;20098;-75
2021/10/19 00:20:25;;;;;;;21.85;17.52;;;12.50;99.90;;;;;;4098755;28;20066;-75
2021/10/19 00:22:26;;;;;;;20.88;16.30;;;12.50;99.90;;;;;;4098232;28;20035;-75
2021/10/19 00:24:27;;;;;;;18.92;16.90;;;12.50;99.90;;;;;;4083403;28;20047;-74
2021/10/19 00:26:28;;;;;;;24.00;17.10;;;12.50;99.90;;;;;;4099548;28;20129;-75
2021/10/19 00:28:29;;;;;;;21.45;16.77;;;12.50;99.90;;;;;;4115045;28;20046;-75
2021/10/19 00:30:29;;;;;;;18.38;16.40;;;12.50;99.90;;;;;;4100611;28;20497;-75
2021/10/19 00:32:30;;;;;;;21.95;18.25;;;12.50;99.90;;;;;;4100339;28;20038;-75
2021/10/19 00:34:31;;;;;;;23.85;18.00;;;12.50;99.90;;;;;;4099773;28;20474;-75
2021/10/19 00:36:32;;;;;;;19.98;17.23;;;12.40;99.90;;;;;;4099848;28;20058;-74
2021/10/19 00:38:32;;;;;;;22.08;16.63;;;12.40;99.90;;;;;;4101580;28;20519;-74
2021/10/19 00:40:36;;;;;;;20.90;18.23;;;12.40;99.90;;;;;;4116812;28;20049;-74
2021/10/19 00:42:37;;;;;;;23.40;18.45;;;12.40;99.90;;;;;;4099478;28;20035;-75
2021/10/19 00:44:38;;;;;;;19.73;16.70;;;12.40;99.90;;;;;;4100597;28;20051;-75
2021/10/19 00:46:40;;;;;;;23.48;16.70;;;12.40;99.90;;;;;;4099616;28;20731;-74
2021/10/19 00:48:42;;;;;;;24.58;18.40;;;12.50;99.90;;;;;;4098354;28;20046;-75
2021/10/19 00:50:45;;;;;;;20.98;16.48;;;12.50;99.90;;;;;;4115613;28;20081;-75
2021/10/19 00:52:48;;;;;;;21.58;17.45;;;12.60;99.90;;;;;;4098438;28;20105;-74
2021/10/19 00:54:51;;;;;;;22.55;16.98;;;12.70;99.90;;;;;;4100261;28;20035;-74
2021/10/19 00:56:55;;;;;;;24.08;17.73;;;12.80;99.90;;;;;;4114057;28;20448;-75
2021/10/19 00:58:56;;;;;;;20.95;17.05;;;12.80;99.90;;;;;;4083678;28;20042;-75
2021/10/19 01:00:57;;;;;;;21.10;16.58;;;12.90;99.90;;;;;;4113668;28;20387;-74
2021/10/19 01:02:58;;;;;;;19.15;16.73;;;12.90;99.90;;;;;;4082670;28;20046;-75
2021/10/19 01:04:58;;;;;;;21.80;17.00;;;13.00;99.90;;;;;;4098772;28;20203;-75
2021/10/19 01:07:01;;;;;;;19.60;15.95;;;13.10;99.90;;;;;;4098729;28;20039;-75
2021/10/19 01:09:02;;;;;;;18.50;15.48;;;13.10;99.90;;;;;;4114268;28;20038;-75
2021/10/19 01:11:07;;;;;;;19.73;15.63;;;13.10;99.90;;;;;;4097363;28;20039;-75
2021/10/19 01:13:07;;;;;;;20.95;16.58;;;13.10;99.90;;;;;;4097539;28;20047;-75
2021/10/19 01:15:16;;;;;;;21.23;16.98;;;13.10;99.90;;;;;;4097684;28;20090;-75
2021/10/19 01:17:17;;;;;;;23.58;16.48;;;13.20;99.90;;;;;;4114435;28;20035;-75
2021/10/19 01:19:24;;;;;;;19.92;13.80;;;13.30;99.90;;;;;;4096415;28;20027;-74
2021/10/19 01:21:25;;;;;;;19.85;16.67;;;13.40;99.90;;;;;;4114095;28;20038;-75
2021/10/19 01:23:26;;;;;;;19.02;16.48;;;13.50;99.90;;;;;;4098219;28;20501;-75
2021/10/19 01:25:30;;;;;;;17.23;15.23;;;13.40;99.90;;;;;;4083517;28;20127;-74
2021/10/19 01:27:30;;;;;;;18.67;16.70;;;13.50;99.90;;;;;;4113819;28;20034;-75
2021/10/19 01:29:31;;;;;;;17.65;15.27;;;13.50;99.90;;;;;;4099669;28;20069;-75
2021/10/19 01:31:32;;;;;;;18.08;16.08;;;13.50;99.90;;;;;;4099580;28;20030;-75
2021/10/19 01:33:33;;;;;;;20.67;15.60;;;13.50;99.90;;;;;;4099603;28;20043;-75
2021/10/19 01:35:40;;;;;;;20.27;15.35;;;13.50;99.90;;;;;;4099065;28;20042;-75
2021/10/19 01:37:42;;;;;;;19.80;16.50;;;13.50;99.90;;;;;;4097278;28;20042;-76
2021/10/19 01:39:43;;;;;;;20.23;16.67;;;13.60;99.90;;;;;;4099178;28;20085;-75
2021/10/19 01:41:46;;;;;;;22.85;16.95;;;13.60;99.90;;;;;;4098858;28;20046;-76
2021/10/19 01:43:47;;;;;;;19.60;15.25;;;13.60;99.90;;;;;;4097868;28;20046;-74
2021/10/19 01:45:50;;;;;;;19.98;16.13;;;13.70;99.90;;;;;;4099925;28;20053;-75
2021/10/19 01:47:53;;;;;;;17.85;15.25;;;13.70;99.90;;;;;;4097453;28;20035;-75
2021/10/19 01:49:54;;;;;;;;;;;13.70;99.90;;;;;;4083936;28;20059;-76
2021/10/19 01:51:54;;;;;;;19.92;16.98;;;13.70;99.90;;;;;;4114143;28;19924;-75
2021/10/19 01:53:56;;;;;;;21.02;15.45;;;13.80;99.90;;;;;;4098381;28;20054;-75
2021/10/19 01:55:57;;;;;;;20.38;15.82;;;13.70;99.90;;;;;;4083762;28;20042;-75
2021/10/19 01:57:58;;;;;;;20.15;15.57;;;13.80;99.90;;;;;;4097506;28;20049;-76
2021/10/19 01:59:59;;;;;;;19.33;16.05;;;13.70;99.90;;;;;;4097844;28;20609;-76
2021/10/19 02:01:59;;;;;;;24.92;16.60;;;13.70;99.90;;;;;;4114090;28;20034;-76
2021/10/19 02:04:00;;;;;;;19.50;15.02;;;13.70;99.90;;;;;;4103642;28;20053;-76
2021/10/19 02:06:01;;;;;;;18.35;15.90;;;13.60;99.90;;;;;;4102833;28;20059;-76
2021/10/19 02:08:03;;;;;;;16.60;14.98;;;13.70;99.90;;;;;;4094347;28;20039;-76
2021/10/19 02:10:06;;;;;;;22.85;17.63;;;13.70;99.90;;;;;;4116891;28;20510;-76
2021/10/19 02:12:07;;;;;;;17.27;15.35;;;13.70;99.90;;;;;;4100735;28;20045;-76
2021/10/19 02:14:08;;;;;;;17.67;15.77;;;13.70;99.90;;;;;;4115065;28;20074;-75
2021/10/19 02:16:08;;;;;;;18.38;14.80;;;13.70;99.90;;;;;;4102696;28;20491;-76
2021/10/19 02:18:10;;;;;;;21.60;16.33;;;13.70;99.90;;;;;;4099817;28;20562;-76
2021/10/19 02:20:11;;;;;;;19.88;16.15;;;13.70;99.90;;;;;;4085269;28;20113;-76
2021/10/19 02:22:11;;;;;;;18.42;16.17;;;13.70;99.90;;;;;;4099468;28;20059;-76
2021/10/19 02:24:12;;;;;;;16.90;15.15;;;13.70;99.90;;;;;;4102346;28;20038;-75
2021/10/19 02:26:13;;;;;;;18.35;16.25;;;13.70;99.90;;;;;;4100526;28;20054;-76
2021/10/19 02:28:14;;;;;;;16.98;15.18;;;13.70;99.90;;;;;;4099926;28;20039;-75
2021/10/19 02:30:17;;;;;;;21.38;16.70;;;13.70;99.90;;;;;;4101167;28;20046;-75
2021/10/19 02:32:18;;;;;;;;;;;13.70;99.90;;;;;;4104007;28;20066;-76
2021/10/19 02:34:21;;;;;;;18.27;15.77;;;13.80;99.90;;;;;;4117219;28;19968;-76
2021/10/19 02:36:22;;;;;;;18.02;15.18;;;13.80;99.90;;;;;;4099528;28;20038;-76
2021/10/19 02:38:22;;;;;;;16.75;14.90;;;13.90;99.90;;;;;;4101365;28;20070;-76
2021/10/19 02:40:24;;;;;;;22.08;15.98;;;13.90;99.90;;;;;;4100618;28;20182;-76
2021/10/19 02:42:25;;;;;;;17.40;15.40;;;13.90;99.90;;;;;;4102569;28;20039;-75
2021/10/19 02:44:26;;;;;;;20.65;15.23;;;14.00;99.90;;;;;;4103448;28;20890;-76
2021/10/19 02:46:26;;;;;;;24.17;15.85;;;14.10;99.90;;;;;;4101337;28;20051;-76
2021/10/19 02:48:27;;;;;;;17.38;15.52;;;14.10;99.90;;;;;;4102104;28;20110;-76
2021/10/19 02:50:28;;;;;;;18.08;14.35;;;14.10;99.90;;;;;;4085942;28;20130;-73
2021/10/19 02:52:31;;;;;;;16.75;14.98;;;14.20;99.90;;;;;;4099522;28;20347;-75
2021/10/19 02:54:34;;;;;;;19.58;16.08;;;14.30;99.90;;;;;;4117305;28;20037;-75
2021/10/19 02:56:34;;;;;;;19.25;15.10;;;14.30;99.90;;;;;;4086912;28;20043;-73
2021/10/19 02:58:35;;;;;;;18.85;16.38;;;14.30;99.90;;;;;;4083747;29;20054;-74
2021/10/19 03:00:36;;;;;;;18.27;14.60;;;14.30;99.90;;;;;;4102085;28;20047;-75
2021/10/19 03:02:37;;;;;;;16.77;14.38;;;14.30;99.90;;;;;;4100263;28;20042;-75
2021/10/19 03:04:38;;;;;;;19.05;15.45;;;14.40;99.90;;;;;;4100856;28;20043;-74
2021/10/19 03:06:39;;;;;;;19.30;14.70;;;14.40;99.90;;;;;;4102517;28;20046;-75
2021/10/19 03:08:39;;;;;;;18.17;16.10;;;14.40;99.90;;;;;;4081253;28;20036;-75
2021/10/19 03:10:40;;;;;;;19.77;15.82;;;14.30;99.90;;;;;;4101898;28;20117;-74
2021/10/19 03:12:41;;;;;;;21.58;17.05;;;14.40;99.90;;;;;;4100837;28;20137;-75
2021/10/19 03:14:42;;;;;;;21.33;16.08;;;14.40;99.90;;;;;;4099257;28;20039;-75
2021/10/19 03:16:43;;;;;;;19.10;16.42;;;14.40;99.90;;;;;;4099863;28;20047;-75
2021/10/19 03:18:43;;;;;;;20.13;16.98;;;14.40;99.90;;;;;;4083688;29;20039;-75
2021/10/19 03:20:44;;;;;;;23.88;15.80;;;14.50;99.90;;;;;;4100218;28;20054;-75
2021/10/19 03:22:45;;;;;;;21.95;16.60;;;14.50;99.90;;;;;;4099179;28;20086;-75
2021/10/19 03:24:46;;;;;;;19.70;16.30;;;14.50;99.90;;;;;;4100165;28;20042;-75
2021/10/19 03:26:47;;;;;;;18.27;16.35;;;14.40;99.90;;;;;;4099758;28;20197;-75
2021/10/19 03:28:50;;;;;;;21.10;17.67;;;14.40;99.90;;;;;;4082910;28;20051;-75
2021/10/19 03:30:51;;;;;;;23.60;18.98;;;14.30;99.90;;;;;;4099697;28;20046;-75
2021/10/19 03:32:51;;;;;;;20.30;18.10;;;14.20;99.90;;;;;;4083756;28;20039;-75
2021/10/19 03:34:52;;;;;;;21.42;18.35;;;14.20;99.90;;;;;;4102175;28;20130;-74
2021/10/19 03:36:53;;;;;;;25.35;18.83;;;14.20;99.90;;;;;;4100157;28;20038;-75
2021/10/19 03:38:54;;;;;;;20.13;17.95;;;14.20;99.90;;;;;;4086497;28;20055;-74
2021/10/19 03:40:55;;;;;;;22.83;19.23;;;14.10;99.90;;;;;;4098756;28;20039;-74
2021/10/19 03:42:55;;;;;;;20.88;18.67;;;14.10;99.90;;;;;;4102322;28;20079;-75
2021/10/19 03:44:56;;;;;;;21.65;18.65;;;14.10;99.90;;;;;;4085363;28;20057;-75
2021/10/19 03:46:57;;;;;;;24.02;19.42;;;14.10;99.90;;;;;;4101423;28;20129;-75
2021/10/19 03:48:58;;;;;;;25.92;21.27;;;14.20;99.90;;;;;;4101270;28;20482;-76
2021/10/19 03:50:58;;;;;;;23.15;19.48;;;14.20;99.90;;;;;;4096872;28;20058;-74
2021/10/19 03:52:59;;;;;;;26.52;19.92;;;14.20;99.90;;;;;;4100888;28;20038;-75
2021/10/19 03:55:00;;;;;;;24.40;20.10;;;14.20;99.90;;;;;;4082705;28;20055;-74
2021/10/19 03:57:01;;;;;;;21.80;19.17;;;14.20;99.90;;;;;;4100068;28;20102;-73
2021/10/19 03:59:01;;;;;;;22.40;18.65;;;14.20;99.90;;;;;;4099323;28;20041;-75
2021/10/19 04:01:02;;;;;;;23.88;21.17;;;14.20;99.90;;;;;;4102186;28;20410;-75
2021/10/19 04:03:03;;;;;;;22.50;19.90;;;14.20;99.90;;;;;;4099876;28;20574;-73
2021/10/19 04:05:04;;;;;;;22.10;19.38;;;14.20;99.90;;;;;;4100669;28;20035;-75
2021/10/19 04:07:05;;;;;;;21.77;18.55;;;14.30;99.90;;;;;;4100551;28;20514;-74
2021/10/19 04:09:06;;;;;;;25.80;21.73;;;14.20;99.90;;;;;;4100589;28;20062;-73
2021/10/19 04:11:07;;;;;;;24.52;20.48;;;14.20;99.90;;;;;;4099291;28;20039;-74
2021/10/19 04:13:08;;;;;;;26.17;21.35;;;14.20;99.90;;;;;;4084680;28;20550;-74
2021/10/19 04:15:10;;;;;;;23.40;18.58;;;14.10;99.90;;;;;;4114550;28;20034;-74
2021/10/19 04:17:10;;;;;;;23.85;20.33;;;14.20;99.90;;;;;;4115075;28;20035;-75
2021/10/19 04:19:11;;;;;;;27.40;17.67;;;14.30;99.90;;;;;;4083767;28;20419;-75
2021/10/19 04:21:12;;;;;;;26.27;20.10;;;14.20;99.90;;;;;;4115018;28;20141;-75
2021/10/19 04:23:13;;;;;;;22.65;19.05;;;14.30;99.90;;;;;;4115895;28;20113;-76
2021/10/19 04:25:13;;;;;;;23.08;19.38;;;14.40;99.90;;;;;;4084082;28;20075;-75
2021/10/19 04:27:14;;;;;;;20.38;18.23;;;14.30;99.90;;;;;;4099171;28;20072;-75
2021/10/19 04:29:15;;;;;;;23.85;16.85;;;14.30;99.90;;;;;;4099572;28;20055;-75
2021/10/19 04:31:16;;;;;;;19.55;17.25;;;14.40;99.90;;;;;;4097721;28;20035;-74
2021/10/19 04:33:18;;;;;;;20.42;18.33;;;14.50;99.90;;;;;;4097783;28;20042;-74
2021/10/19 04:35:19;;;;;;;23.55;18.50;;;14.40;99.90;;;;;;4097854;28;20030;-75
2021/10/19 04:37:19;;;;;;;20.88;16.42;;;14.40;99.90;;;;;;4114232;28;20034;-74
2021/10/19 04:39:20;;;;;;;18.70;16.70;;;14.40;99.90;;;;;;4082190;28;20028;-74
2021/10/19 04:41:21;;;;;;;22.45;17.95;;;14.50;99.90;;;;;;4099872;28;20038;-75
2021/10/19 04:43:22;;;;;;;21.65;16.10;;;14.40;99.90;;;;;;4114644;28;20125;-74
2021/10/19 04:45:23;;;;;;;21.83;19.48;;;14.40;99.90;;;;;;4098113;28;20031;-75
2021/10/19 04:47:24;;;;;;;22.13;19.15;;;14.40;99.90;;;;;;4096712;28;20047;-72
2021/10/19 04:49:25;;;;;;;22.33;19.63;;;14.40;99.90;;;;;;4084080;28;20141;-74
2021/10/19 04:51:26;;;;;;;22.67;18.65;;;14.40;99.90;;;;;;4100817;28;20121;-73
2021/10/19 04:53:27;;;;;;;22.58;20.00;;;14.30;99.90;;;;;;4098944;28;20150;-73
2021/10/19 04:55:28;;;;;;;23.25;19.52;;;14.30;99.90;;;;;;4099887;28;20034;-73
2021/10/19 04:57:29;;;;;;;23.17;20.33;;;14.20;99.90;;;;;;4099747;28;20031;-72
2021/10/19 04:59:30;;;;;;;23.38;19.95;;;14.30;99.90;;;;;;4100030;28;20053;-71
2021/10/19 05:01:30;;;;;;;24.50;20.67;;;14.30;99.90;;;;;;4097928;28;20039;-72
2021/10/19 05:03:31;;;;;;;28.00;21.30;;;14.20;99.90;;;;;;4115272;28;20095;-73
2021/10/19 05:05:32;;;;;;;26.73;22.33;;;14.20;99.90;;;;;;4097298;28;20043;-73
2021/10/19 05:07:32;;;;;;;26.45;22.45;;;14.10;99.90;;;;;;4099048;28;20622;-73
2021/10/19 05:09:33;;;;;;;25.17;22.33;;;14.20;99.90;;;;;;4098529;28;20062;-73
2021/10/19 05:11:34;;;;;;;30.35;23.08;;;14.10;99.90;;;;;;4083245;28;20430;-73
2021/10/19 05:13:35;;;;;;;30.35;23.92;;;14.10;99.90;;;;;;4114591;28;20064;-73
2021/10/19 05:15:36;;;;;;;27.92;22.73;;;14.10;99.90;;;;;;4099994;28;20039;-73
2021/10/19 05:17:37;;;;;;;32.40;22.80;;;14.10;99.90;;;;;;4098522;28;20482;-73
2021/10/19 05:19:38;;;;;;;30.10;23.08;;;14.10;99.90;;;;;;4113538;28;20045;-73
2021/10/19 05:21:39;;;;;;;28.30;23.20;;;14.10;99.90;;;;;;4097991;28;20054;-73
2021/10/19 05:23:39;;;;;;;28.60;24.25;;;14.10;99.90;;;;;;4099491;28;20450;-73
2021/10/19 05:25:41;;;;;;;28.65;23.60;;;14.10;99.90;;;;;;4098768;28;20049;-73
2021/10/19 05:27:41;;;;;;;28.77;22.50;;;14.10;99.90;;;;;;4100563;28;20045;-72
2021/10/19 05:29:42;;;;;;;25.13;22.00;;;14.10;99.90;;;;;;4098236;28;20066;-72
2021/10/19 05:31:43;;;;;;;28.13;23.30;;;14.10;99.90;;;;;;4097576;28;20043;-73
2021/10/19 05:33:44;;;;;;;29.83;23.15;;;14.10;99.90;;;;;;4099792;28;20469;-73
2021/10/19 05:35:44;;;;;;;32.03;23.17;;;14.00;99.90;;;;;;4083295;28;20679;-74
2021/10/19 05:37:45;;;;;;;29.88;23.00;;;14.10;99.90;;;;;;4102146;28;20046;-73
2021/10/19 05:39:46;;;;;;;28.83;22.30;;;14.10;99.90;;;;;;4101821;28;20034;-74
2021/10/19 05:41:46;;;;;;;31.52;24.35;;;14.10;99.90;;;;;;4102879;28;20042;-73
2021/10/19 05:43:47;;;;;;;31.95;24.13;;;14.10;99.90;;;;;;4117571;28;20102;-73
2021/10/19 05:45:48;;;;;;;28.70;23.52;;;14.10;99.90;;;;;;4103158;28;20051;-73
2021/10/19 05:47:49;;;;;;;29.02;24.17;;;14.10;99.90;;;;;;4101986;28;20034;-73
2021/10/19 05:49:50;;;;;;;29.33;22.02;;;14.10;99.90;;;;;;4102059;28;20136;-73
2021/10/19 05:51:54;;;;;;;31.08;23.25;;;14.10;99.90;;;;;;4101874;28;20043;-72
2021/10/19 05:53:55;;;;;;;32.97;23.58;;;14.10;99.90;;;;;;4101337;28;20031;-73
2021/10/19 05:55:56;;;;;;;34.67;25.30;;;14.10;99.90;;;;;;4102231;28;20410;-73
2021/10/19 05:57:57;;;;;;;33.28;25.17;;;14.10;99.90;;;;;;4102866;28;20193;-73
2021/10/19 05:59:58;;;;;;;29.40;23.88;;;14.10;99.90;;;;;;4100720;28;20042;-73
2021/10/19 06:02:03;;;;;;;30.95;24.52;;;14.20;99.90;;;;;;4101045;28;20035;-73
2021/10/19 06:04:04;;;;;;;34.42;25.20;;;14.10;99.90;;;;;;4101143;28;20134;-73
2021/10/19 06:06:12;;;;;;;34.28;25.63;;;14.10;99.90;;;;;;4117196;28;20046;-73
2021/10/19 06:08:12;;;;;;;33.70;24.67;;;14.10;99.90;;;;;;4118198;28;20161;-72
2021/10/19 06:10:19;;;;;;;36.45;26.08;;;14.10;99.90;;;;;;4100688;28;20054;-73
2021/10/19 06:12:20;;;;;;;33.50;25.35;;;14.10;99.90;;;;;;4103553;28;20496;-73
2021/10/19 06:14:24;;;;;;;32.95;25.90;;;14.10;99.90;;;;;;4103324;28;20161;-73
2021/10/19 06:16:26;;;;;;;32.28;22.58;;;14.20;99.90;;;;;;4102026;28;20023;-72
2021/10/19 06:18:27;;;;;;;35.42;26.75;;;14.20;99.90;;;;;;4086654;28;20059;-73
2021/10/19 06:20:28;;;;;;;33.17;25.08;;;14.30;99.90;;;;;;4099995;28;20049;-74
2021/10/19 06:22:30;;;;;;;35.78;25.52;;;14.30;99.90;;;;;;4101378;28;20469;-74
2021/10/19 06:24:30;;;;;;;34.95;25.25;;;14.30;99.90;;;;;;4099704;28;20074;-73
2021/10/19 06:26:35;;;;;;;34.05;26.33;;;14.20;99.90;;;;;;4100908;28;20136;-73
2021/10/19 06:28:36;;;;;;;32.65;24.70;;;14.20;99.90;;;;;;4099022;28;20046;-73
2021/10/19 06:30:37;;;;;;;31.58;25.10;;;14.20;99.90;;;;;;4099609;28;20038;-72
2021/10/19 06:32:40;;;;;;;35.17;26.02;;;14.20;99.90;;;;;;4100728;28;20039;-73
2021/10/19 06:34:40;;;;;;;31.88;26.00;;;14.30;99.90;;;;;;4100099;28;20485;-73
2021/10/19 06:36:41;;;;;;;37.75;27.60;;;14.30;99.90;;;;;;4086718;28;20082;-73
2021/10/19 06:38:42;;;;;;;34.60;24.70;;;14.30;99.90;;;;;;4098059;28;20045;-72
2021/10/19 06:40:42;;;;;;;33.15;25.98;;;14.30;99.90;;;;;;4100287;28;20035;-73
2021/10/19 06:42:44;;;;;;;39.63;26.73;;;14.40;99.90;;;;;;4100036;28;20066;-73
2021/10/19 06:44:45;;;;;;;31.17;26.20;;;14.40;99.90;;;;;;4097685;28;20031;-73
2021/10/19 06:46:47;;;;;;;38.28;26.60;;;14.40;99.90;;;;;;4099946;28;20058;-73
2021/10/19 06:48:47;;;;;;;38.50;28.00;;;14.40;99.90;;;;;;4101782;28;20046;-74
2021/10/19 06:50:48;;;;;;;38.55;29.40;;;14.40;99.90;;;;;;4079665;28;20045;-74
2021/10/19 06:52:49;;;;;;;35.45;27.58;;;14.40;99.90;;;;;;4099652;28;20070;-73
2021/10/19 06:54:50;;;;;;;41.95;27.85;;;14.40;99.90;;;;;;4085142;28;20054;-73
2021/10/19 06:56:50;;;;;;;40.42;27.60;;;14.40;99.90;;;;;;4099401;28;20085;-73
2021/10/19 06:58:52;;;;;;;40.47;29.48;;;14.40;99.90;;;;;;4086867;28;20099;-74
2021/10/19 07:00:54;;;;;;;40.20;28.67;;;14.40;99.90;;;;;;4085374;28;20049;-74
2021/10/19 07:02:55;;;;;;;41.38;28.42;;;14.40;99.90;;;;;;4083865;28;20051;-73
2021/10/19 07:04:56;;;;;;;41.42;28.23;;;14.40;99.90;;;;;;4100589;28;20081;-74
2021/10/19 07:06:57;;;;;;;38.38;27.52;;;14.50;99.90;;;;;;4103874;28;20069;-73
2021/10/19 07:08:58;;;;;;;41.42;26.25;;;14.50;99.90;;;;;;4100568;28;20569;-74
2021/10/19 07:10:59;;;;;;;35.72;26.05;;;14.50;99.90;;;;;;4099198;28;20676;-74
2021/10/19 07:13:00;;;;;;;37.15;26.17;;;14.60;99.90;;;;;;4099766;28;20154;-74
2021/10/19 07:15:01;;;;;;;40.53;28.33;;;14.50;99.90;;;;;;4099505;28;20815;-74
2021/10/19 07:17:02;;;;;;;35.25;24.40;;;14.50;99.90;;;;;;4100069;28;20073;-73
2021/10/19 07:19:06;;;;;;;31.52;23.25;;;14.50;99.90;;;;;;4100154;28;20050;-73
2021/10/19 07:21:07;;;;;;;32.33;23.98;;;14.60;99.90;;;;;;4101227;28;20042;-73
2021/10/19 07:23:08;;;;;;;31.73;22.52;;;14.70;99.90;;;;;;4099499;28;20035;-73
2021/10/19 07:25:09;;;;;;;32.33;24.75;;;14.70;99.90;;;;;;4100480;28;20034;-73
2021/10/19 07:27:10;;;;;;;35.95;25.92;;;14.70;99.90;;;;;;4099307;28;20089;-73
2021/10/19 07:29:11;;;;;;;34.70;25.55;;;14.80;99.90;;;;;;4100679;28;20049;-73
2021/10/19 07:31:12;;;;;;;35.65;26.27;;;14.70;99.90;;;;;;4100461;28;20097;-73
2021/10/19 07:33:13;;;;;;;36.08;25.33;;;14.70;99.90;;;;;;4100822;28;20043;-73
2021/10/19 07:35:16;;;;;;;37.90;25.42;;;14.80;99.90;;;;;;4101748;28;20133;-73
2021/10/19 07:37:16;;;;;;;;;;;14.80;99.90;;;;;;4116830;28;20058;-73
2021/10/19 07:39:17;;;;;;;38.00;24.13;;;14.80;99.90;;;;;;4101400;28;20059;-74
2021/10/19 07:41:18;;;;;;;29.55;22.58;;;14.80;99.90;;;;;;4115163;28;20034;-73
2021/10/19 07:43:19;;;;;;;40.25;25.67;;;14.80;99.90;;;;;;4102347;28;20162;-74
2021/10/19 07:45:21;;;;;;;36.22;23.77;;;14.90;99.90;;;;;;4099903;28;20027;-75
2021/10/19 07:47:21;;;;;;;32.33;21.83;;;14.90;99.90;;;;;;4098368;28;20070;-73
2021/10/19 07:49:23;;;;;;;32.38;23.48;;;14.90;99.90;;;;;;4098090;28;20035;-73
2021/10/19 07:51:24;;;;;;;33.05;23.85;;;15.00;99.90;;;;;;4100030;28;20055;-74
2021/10/19 07:53:25;;;;;;;36.92;25.23;;;15.00;99.90;;;;;;4113926;28;20034;-74
2021/10/19 07:55:29;;;;;;;31.05;23.88;;;15.00;99.90;;;;;;4100047;28;20036;-74
2021/10/19 07:57:30;;;;;;;31.33;21.77;;;15.00;99.90;;;;;;4098837;28;20078;-73
2021/10/19 07:59:31;;;;;;;36.60;24.02;;;15.00;99.90;;;;;;4098061;28;20043;-74
2021/10/19 08:01:33;;;;;;;29.70;22.58;;;15.10;99.90;;;;;;4099927;28;20060;-73
2021/10/19 08:03:34;;;;;;;29.50;22.45;;;15.10;99.90;;;;;;4099163;28;20061;-74
2021/10/19 08:05:35;;;;;;;29.70;23.00;;;15.10;99.90;;;;;;4099318;28;20047;-73
2021/10/19 08:07:36;;;;;;;30.67;22.15;;;15.10;99.90;;;;;;4098561;28;20187;-73
2021/10/19 08:09:36;;;;;;;31.50;22.25;;;15.20;99.90;;;;;;4100232;28;20155;-75
2021/10/19 08:11:37;;;;;;;26.80;21.92;;;15.20;99.90;;;;;;4096607;28;20077;-72
2021/10/19 08:13:38;;;;;;;26.58;22.08;;;15.30;99.90;;;;;;4100573;28;20043;-73
2021/10/19 08:15:40;;;;;;;30.38;22.48;;;15.30;99.90;;;;;;4099828;28;20093;-73
2021/10/19 08:17:41;;;;;;;27.15;21.23;;;15.30;99.90;;;;;;4113315;28;20046;-73
2021/10/19 08:19:41;;;;;;;33.58;24.15;;;15.30;99.90;;;;;;4081835;28;20434;-73
2021/10/19 08:21:42;;;;;;;29.48;22.17;;;15.40;99.90;;;;;;4099575;28;20045;-73
2021/10/19 08:23:43;;;;;;;26.33;21.17;;;15.40;99.90;;;;;;4099296;28;20118;-73
2021/10/19 08:25:44;;;;;;;31.98;25.92;;;15.40;99.90;;;;;;4097442;28;20088;-71
2021/10/19 08:27:46;;;;;;;32.72;24.13;;;15.40;99.90;;;;;;4095101;28;20117;-73
2021/10/19 08:29:47;;;;;;;31.00;25.23;;;15.40;99.90;;;;;;4112204;28;20043;-73
2021/10/19 08:31:47;;;;;;;26.27;22.05;;;15.50;99.90;;;;;;4097614;28;20039;-71
2021/10/19 08:33:50;;;;;;;23.35;19.85;;;15.60;99.90;;;;;;4097920;28;20053;-74
2021/10/19 08:35:50;;;;;;;26.10;22.33;;;15.60;99.90;;;;;;4100301;28;20039;-75
2021/10/19 08:37:52;;;;;;;28.50;22.98;;;15.60;99.90;;;;;;4097890;28;20545;-74
2021/10/19 08:39:53;;;;;;;24.80;21.63;;;15.60;99.90;;;;;;4098720;28;20082;-72
2021/10/19 08:41:54;;;;;;;24.13;20.77;;;15.80;99.90;;;;;;4098155;28;20042;-73
2021/10/19 08:43:54;;;;;;;26.92;21.52;;;15.80;99.90;;;;;;4097584;28;20400;-74
2021/10/19 08:45:55;;;;;;;23.48;20.08;;;15.80;99.90;;;;;;4097217;28;21226;-73
2021/10/19 08:47:56;;;;;;;23.48;20.83;;;15.80;99.90;;;;;;4099359;28;20066;-72
2021/10/19 08:49:57;;;;;;;24.90;20.60;;;15.90;99.90;;;;;;4100004;28;20085;-73
2021/10/19 08:51:57;;;;;;;22.85;19.23;;;15.80;99.90;;;;;;4099112;28;20031;-74
2021/10/19 08:53:59;;;;;;;21.60;19.25;;;15.90;99.90;;;;;;4097897;28;20130;-73
2021/10/19 08:56:00;;;;;;;18.77;16.88;;;16.00;99.90;;;;;;4096776;28;20035;-72
2021/10/19 08:58:04;;;;;;;20.38;18.20;;;16.00;99.90;;;;;;4098614;28;20573;-72
2021/10/19 09:00:08;;;;;;;20.88;18.48;;;16.00;99.90;;;;;;4076055;28;20054;-73
2021/10/19 09:02:09;;;;;;;20.63;18.48;;;16.00;99.90;;;;;;4112608;28;20034;-73
2021/10/19 09:04:12;;;;;;;19.73;17.63;;;16.10;99.90;;;;;;4096014;28;20053;-73
2021/10/19 09:06:13;;;;;;;21.85;19.48;;;16.10;99.90;;;;;;4095894;28;20074;-73
2021/10/19 09:08:18;;;;;;;25.13;21.75;;;16.10;99.90;;;;;;4097208;28;20069;-73
2021/10/19 09:10:19;;;;;;;24.17;21.63;;;16.00;99.90;;;;;;4112306;28;20038;-73
2021/10/19 09:12:23;;;;;;;23.55;20.13;;;16.10;99.90;;;;;;4082834;28;20043;-73
2021/10/19 09:14:37;;;;;;;22.58;20.15;;;16.00;99.90;;;;;;4099660;28;20046;-73
2021/10/19 09:16:48;;;;;;;22.63;18.63;;;16.00;99.90;;;;;;4113142;28;20034;-72
2021/10/19 09:18:59;;;;;;;20.23;18.13;;;16.10;99.90;;;;;;4113088;28;20476;-72
2021/10/19 09:21:01;;;;;;;20.33;18.17;;;16.10;99.90;;;;;;4078535;28;20050;-73
2021/10/19 09:23:03;;;;;;;22.20;19.20;;;16.10;99.90;;;;;;4094309;28;20675;-72
2021/10/19 09:25:05;;;;;;;19.10;16.65;;;16.10;99.90;;;;;;4098995;28;20339;-72
2021/10/19 09:27:10;;;;;;;18.50;16.52;;;16.10;99.90;;;;;;4099479;28;20387;-72
2021/10/19 09:29:10;;;;;;;18.35;15.32;;;16.10;99.90;;;;;;4098539;28;20047;-73
2021/10/19 09:31:12;;;;;;;17.05;15.35;;;16.20;99.90;;;;;;4100814;28;20438;-72
2021/10/19 09:33:18;;;;;;;20.05;16.83;;;16.20;99.90;;;;;;4098014;28;20066;-71
2021/10/19 09:35:22;;;;;;;17.60;14.93;;;16.20;99.90;;;;;;4098078;28;20151;-71
2021/10/19 09:37:23;;;;;;;16.15;14.65;;;16.20;99.90;;;;;;4097843;28;20046;-73
2021/10/19 09:39:34;;;;;;;13.48;12.18;;;16.30;99.90;;;;;;4084832;28;20036;-72
2021/10/19 09:41:45;;;;;;;13.73;11.77;;;16.40;99.90;;;;;;4087664;28;20043;-73
2021/10/19 09:43:46;;;;;;;13.90;12.60;;;16.40;99.90;;;;;;4099014;28;20036;-71
2021/10/19 09:45:52;;;;;;;13.60;11.95;;;16.40;99.90;;;;;;4098479;28;20114;-71
2021/10/19 09:47:56;;;;;;;11.73;10.52;;;16.40;99.90;;;;;;4097713;28;20060;-73
2021/10/19 09:49:57;;;;;;;11.50;10.40;;;16.50;99.90;;;;;;4096552;28;20039;-72
2021/10/19 09:52:00;;;;;;;11.98;10.77;;;16.50;99.90;;;;;;4097205;28;20530;-72
2021/10/19 09:54:01;;;;;;;;;;;16.40;99.90;;;;;;4082400;28;20047;-72
2021/10/19 09:56:02;;;;;;;11.07;9.98;;;16.50;99.90;;;;;;4098972;28;19929;-73
2021/10/19 09:58:04;;;;;;;11.07;10.07;;;16.40;99.90;;;;;;4096515;28;20049;-72
2021/10/19 10:00:06;;;;;;;11.85;10.63;;;16.40;99.90;;;;;;4095863;28;20051;-73
2021/10/19 10:02:11;;;;;;;12.45;11.15;;;16.50;99.90;;;;;;4114051;28;20050;-73
2021/10/19 10:04:12;;;;;;;12.75;11.55;;;16.40;99.90;;;;;;4096030;28;20038;-74
2021/10/19 10:06:14;;;;;;;10.82;9.82;;;16.40;99.90;;;;;;4083490;28;20051;-73
2021/10/19 10:08:22;;;;;;;14.35;10.68;;;16.40;99.90;;;;;;4094273;28;20054;-73
2021/10/19 10:10:24;;;;;;;17.15;12.07;;;16.40;99.90;;;;;;4096735;28;20035;-74
2021/10/19 10:12:32;;;;;;;12.70;11.07;;;16.40;99.90;;;;;;4081662;28;20044;-72
2021/10/19 10:14:48;;;;;;;13.50;11.48;;;16.40;99.90;;;;;;4097939;28;20072;-74
2021/10/19 10:16:49;;;;;;;13.15;11.82;;;16.50;99.90;;;;;;4085166;28;20101;-72